createdAt,value
2023-05-10T00:00:19.832Z,1360.00
2023-05-10T00:01:19.897Z,1355.00
2023-05-10T00:02:19.873Z,1355.00
2023-05-10T00:03:19.952Z,1347.00
2023-05-10T00:04:19.898Z,1348.00
2023-05-10T00:05:19.837Z,1348.00
2023-05-10T00:06:19.817Z,1365.00
2023-05-10T00:07:19.809Z,1359.00
2023-05-10T00:08:19.790Z,1370.00
2023-05-10T00:09:19.800Z,1348.00
2023-05-10T00:10:19.806Z,1336.00
2023-05-10T00:11:22.188Z,1350.00
2023-05-10T00:12:19.804Z,1345.00
2023-05-10T00:13:19.849Z,1349.00
2023-05-10T00:14:19.782Z,1362.00
2023-05-10T00:15:19.772Z,1364.00
2023-05-10T00:16:19.810Z,1348.00
2023-05-10T00:17:19.760Z,1363.00
2023-05-10T00:18:19.763Z,1347.00
2023-05-10T00:19:19.756Z,1355.00
2023-05-10T00:20:19.806Z,1354.00
2023-05-10T00:21:19.739Z,1361.00
2023-05-10T00:22:19.726Z,1355.00
2023-05-10T00:23:19.754Z,1351.00
2023-05-10T00:24:19.738Z,1350.00
2023-05-10T00:25:19.668Z,1356.00
2023-05-10T00:26:19.676Z,1356.00
2023-05-10T00:27:19.680Z,1359.00
2023-05-10T00:28:19.665Z,1360.00
2023-05-10T00:29:19.717Z,1354.00
2023-05-10T00:30:19.677Z,1339.00
2023-05-10T00:31:19.659Z,1350.00
2023-05-10T00:32:19.739Z,1349.00
2023-05-10T00:33:19.637Z,1350.00
2023-05-10T00:34:19.656Z,1353.00
2023-05-10T00:35:19.597Z,1351.00
2023-05-10T00:36:19.604Z,1347.00
2023-05-10T00:37:19.621Z,1351.00
2023-05-10T00:38:19.584Z,1336.00
2023-05-10T00:39:19.605Z,1345.00
2023-05-10T00:40:19.629Z,1339.00
2023-05-10T00:41:19.591Z,1341.00
2023-05-10T00:42:19.550Z,1353.00
2023-05-10T00:43:19.604Z,1357.00
2023-05-10T00:44:19.567Z,1343.00
2023-05-10T00:45:19.528Z,1334.00
2023-05-10T00:46:19.624Z,1342.00
2023-05-10T00:47:19.608Z,1344.00
2023-05-10T00:48:19.537Z,1339.00
2023-05-10T00:49:19.522Z,1331.00
2023-05-10T00:50:19.549Z,1345.00
2023-05-10T00:51:19.518Z,1332.00
2023-05-10T00:52:19.500Z,1344.00
2023-05-10T00:53:19.473Z,1344.00
2023-05-10T00:54:19.483Z,1335.00
2023-05-10T00:55:19.463Z,1324.00
2023-05-10T00:56:19.464Z,1331.00
2023-05-10T00:57:19.454Z,1329.00
2023-05-10T00:58:19.522Z,1329.00
2023-05-10T00:59:19.451Z,1338.00
2023-05-10T01:00:19.428Z,1340.00
2023-05-10T01:01:19.477Z,1335.00
2023-05-10T01:02:19.501Z,1344.00
2023-05-10T01:03:19.549Z,1332.00
2023-05-10T01:04:19.400Z,1344.00
2023-05-10T01:05:19.415Z,1319.00
2023-05-10T01:06:19.418Z,1336.00
2023-05-10T01:07:19.389Z,1338.00
2023-05-10T01:08:19.377Z,1341.00
2023-05-10T01:09:19.386Z,1319.00
2023-05-10T01:10:19.426Z,1327.00
2023-05-10T01:11:19.372Z,1320.00
2023-05-10T01:12:19.393Z,1340.00
2023-05-10T01:13:19.372Z,1327.00
2023-05-10T01:14:19.316Z,1323.00
2023-05-10T01:15:19.314Z,1321.00
2023-05-10T01:16:19.335Z,1318.00
2023-05-10T01:17:19.300Z,1336.00
2023-05-10T01:18:19.307Z,1320.00
2023-05-10T01:19:19.298Z,1316.00
2023-05-10T01:20:19.477Z,1324.00
2023-05-10T01:21:19.310Z,1332.00
2023-05-10T01:22:19.299Z,1326.00
2023-05-10T01:23:19.303Z,1328.00
2023-05-10T01:24:19.241Z,1312.00
2023-05-10T01:25:19.252Z,1333.00
2023-05-10T01:26:20.184Z,1332.00
2023-05-10T01:27:19.283Z,1329.00
2023-05-10T01:28:19.238Z,1322.00
2023-05-10T01:29:19.225Z,1320.00
2023-05-10T01:30:19.298Z,1317.00
2023-05-10T01:31:19.476Z,1318.00
2023-05-10T01:32:19.519Z,1317.00
2023-05-10T01:33:19.518Z,1320.00
2023-05-10T01:34:19.519Z,1324.00
2023-05-10T01:35:19.525Z,1321.00
2023-05-10T01:36:19.542Z,1328.00
2023-05-10T01:37:19.561Z,1316.00
2023-05-10T01:38:19.567Z,1335.00
2023-05-10T01:39:19.577Z,1319.00
2023-05-10T01:40:19.570Z,1313.00
2023-05-10T01:41:19.567Z,1326.00
2023-05-10T01:42:19.572Z,1328.00
2023-05-10T01:43:19.581Z,1311.00
2023-05-10T01:44:19.588Z,1314.00
2023-05-10T01:45:19.625Z,1329.00
2023-05-10T01:46:19.649Z,1323.00
2023-05-10T01:47:19.640Z,1319.00
2023-05-10T01:48:19.638Z,1324.00
2023-05-10T01:49:19.636Z,1321.00
2023-05-10T01:50:19.728Z,1320.00
2023-05-10T01:51:19.643Z,1321.00
2023-05-10T01:52:19.651Z,1311.00
2023-05-10T01:53:19.610Z,1313.00
2023-05-10T01:54:19.677Z,1308.00
2023-05-10T01:55:19.694Z,1303.00
2023-05-10T01:56:19.670Z,1296.00
2023-05-10T01:57:19.668Z,1307.00
2023-05-10T01:58:19.639Z,1312.00
2023-05-10T01:59:19.649Z,1324.00
2023-05-10T02:00:19.667Z,1331.00
2023-05-10T02:01:19.674Z,1307.00
2023-05-10T02:02:19.676Z,1317.00
2023-05-10T02:03:19.721Z,1292.00
2023-05-10T02:04:19.695Z,1319.00
2023-05-10T02:05:19.699Z,1312.00
2023-05-10T02:06:19.669Z,1308.00
2023-05-10T02:07:19.685Z,1320.00
2023-05-10T02:08:19.719Z,1326.00
2023-05-10T02:09:19.756Z,1307.00
2023-05-10T02:10:19.745Z,1314.00
2023-05-10T02:11:19.745Z,1311.00
2023-05-10T02:12:19.706Z,1304.00
2023-05-10T02:13:19.738Z,1320.00
2023-05-10T02:14:19.730Z,1320.00
2023-05-10T02:15:19.739Z,1317.00
2023-05-10T02:16:19.739Z,1317.00
2023-05-10T02:17:19.746Z,1314.00
2023-05-10T02:18:19.744Z,1303.00
2023-05-10T02:19:19.750Z,1300.00
2023-05-10T02:20:19.981Z,1315.00
2023-05-10T02:21:19.807Z,1297.00
2023-05-10T02:22:19.766Z,1304.00
2023-05-10T02:23:19.775Z,1307.00
2023-05-10T02:24:19.813Z,1288.00
2023-05-10T02:25:19.851Z,1307.00
2023-05-10T02:26:19.826Z,1285.00
2023-05-10T02:27:19.848Z,1303.00
2023-05-10T02:28:19.857Z,1310.00
2023-05-10T02:29:19.825Z,1308.00
2023-05-10T02:30:19.853Z,1297.00
2023-05-10T02:31:19.857Z,1310.00
2023-05-10T02:32:19.867Z,1311.00
2023-05-10T02:33:19.821Z,1300.00
2023-05-10T02:34:19.852Z,1309.00
2023-05-10T02:35:19.855Z,1292.00
2023-05-10T02:36:19.837Z,1292.00
2023-05-10T02:37:19.847Z,1299.00
2023-05-10T02:38:19.856Z,1298.00
2023-05-10T02:39:19.826Z,1292.00
2023-05-10T02:40:19.980Z,1294.00
2023-05-10T02:41:19.817Z,1281.00
2023-05-10T02:42:19.906Z,1280.00
2023-05-10T02:43:19.851Z,1279.00
2023-05-10T02:44:19.869Z,1293.00
2023-05-10T02:45:19.906Z,1282.00
2023-05-10T02:46:19.925Z,1285.00
2023-05-10T02:47:19.847Z,1293.00
2023-05-10T02:48:19.841Z,1287.00
2023-05-10T02:49:19.877Z,1304.00
2023-05-10T02:50:19.880Z,1286.00
2023-05-10T02:51:19.920Z,1297.00
2023-05-10T02:52:19.950Z,1276.00
2023-05-10T02:53:19.913Z,1288.00
2023-05-10T02:54:19.930Z,1273.00
2023-05-10T02:55:19.953Z,1268.00
2023-05-10T02:56:19.923Z,1291.00
2023-05-10T02:57:19.944Z,1294.00
2023-05-10T02:58:19.956Z,1289.00
2023-05-10T02:59:19.962Z,1287.00
2023-05-10T03:00:19.964Z,1278.00
2023-05-10T03:01:20.040Z,1272.00
2023-05-10T03:02:20.005Z,1270.00
2023-05-10T03:03:20.032Z,1283.00
2023-05-10T03:04:20.069Z,1276.00
2023-05-10T03:05:20.072Z,1278.00
2023-05-10T03:06:20.062Z,1276.00
2023-05-10T03:07:20.072Z,1271.00
2023-05-10T03:08:20.040Z,1273.00
2023-05-10T03:09:20.083Z,1269.00
2023-05-10T03:10:20.077Z,1284.00
2023-05-10T03:11:20.090Z,1263.00
2023-05-10T03:12:20.104Z,1249.00
2023-05-10T03:13:20.098Z,1270.00
2023-05-10T03:14:20.124Z,1284.00
2023-05-10T03:15:20.137Z,1275.00
2023-05-10T03:16:20.140Z,1275.00
2023-05-10T03:17:20.152Z,1271.00
2023-05-10T03:18:20.147Z,1277.00
2023-05-10T03:19:20.152Z,1272.00
2023-05-10T03:20:20.178Z,1264.00
2023-05-10T03:21:20.175Z,1270.00
2023-05-10T03:22:20.308Z,1263.00
2023-05-10T03:23:20.196Z,1267.00
2023-05-10T03:24:20.202Z,1268.00
2023-05-10T03:25:20.209Z,1266.00
2023-05-10T03:26:20.200Z,1274.00
2023-05-10T03:27:20.214Z,1266.00
2023-05-10T03:28:20.226Z,1268.00
2023-05-10T03:29:20.234Z,1252.00
2023-05-10T03:30:20.303Z,1255.00
2023-05-10T03:31:20.293Z,1269.00
2023-05-10T03:32:20.241Z,1272.00
2023-05-10T03:33:20.269Z,1270.00
2023-05-10T03:34:20.257Z,1270.00
2023-05-10T03:35:20.271Z,1268.00
2023-05-10T03:36:20.268Z,1264.00
2023-05-10T03:37:20.275Z,1261.00
2023-05-10T03:38:20.301Z,1256.00
2023-05-10T03:39:20.298Z,1258.00
2023-05-10T03:40:20.325Z,1250.00
2023-05-10T03:41:20.305Z,1265.00
2023-05-10T03:42:20.379Z,1266.00
2023-05-10T03:43:20.369Z,1258.00
2023-05-10T03:44:20.402Z,1247.00
2023-05-10T03:45:20.327Z,1254.00
2023-05-10T03:46:20.421Z,1262.00
2023-05-10T03:47:20.414Z,1258.00
2023-05-10T03:48:20.396Z,1266.00
2023-05-10T03:49:20.382Z,1258.00
2023-05-10T03:50:20.441Z,1261.00
2023-05-10T03:51:20.455Z,1251.00
2023-05-10T03:52:20.452Z,1259.00
2023-05-10T03:53:20.429Z,1251.00
2023-05-10T03:54:20.469Z,1255.00
2023-05-10T03:55:20.506Z,1253.00
2023-05-10T03:56:20.509Z,1258.00
2023-05-10T03:57:20.520Z,1243.00
2023-05-10T03:58:20.521Z,1253.00
2023-05-10T03:59:20.582Z,1252.00
2023-05-10T04:00:20.600Z,1253.00
2023-05-10T04:01:20.573Z,1251.00
2023-05-10T04:02:20.612Z,1257.00
2023-05-10T04:03:20.797Z,1250.00
2023-05-10T04:04:20.652Z,1247.00
2023-05-10T04:05:20.640Z,1249.00
2023-05-10T04:06:20.770Z,1244.00
2023-05-10T04:07:20.700Z,1234.00
2023-05-10T04:08:20.690Z,1241.00
2023-05-10T04:09:20.724Z,1217.00
2023-05-10T04:10:20.752Z,1196.00
2023-05-10T04:11:20.734Z,1185.00
2023-05-10T04:12:20.796Z,1176.00
2023-05-10T04:13:20.884Z,1169.00
2023-05-10T04:14:20.847Z,1154.00
2023-05-10T04:15:20.800Z,1148.00
2023-05-10T04:16:20.862Z,1145.00
2023-05-10T04:17:20.851Z,1138.00
2023-05-10T04:18:20.868Z,1136.00
2023-05-10T04:19:21.425Z,1142.00
2023-05-10T04:20:20.897Z,1119.00
2023-05-10T04:21:20.921Z,1123.00
2023-05-10T04:22:21.034Z,1121.00
2023-05-10T04:23:20.967Z,1103.00
2023-05-10T04:24:20.966Z,1103.00
2023-05-10T04:25:21.030Z,1091.00
2023-05-10T04:26:21.022Z,1106.00
2023-05-10T04:27:21.028Z,1098.00
2023-05-10T04:28:21.058Z,1095.00
2023-05-10T04:29:21.060Z,1102.00
2023-05-10T04:30:21.115Z,1079.00
2023-05-10T04:31:21.217Z,1066.00
2023-05-10T04:32:21.395Z,1061.00
2023-05-10T04:33:21.174Z,1068.00
2023-05-10T04:34:21.188Z,1050.00
2023-05-10T04:35:21.182Z,1064.00
2023-05-10T04:36:21.205Z,1062.00
2023-05-10T04:37:21.237Z,1077.00
2023-05-10T04:38:21.237Z,1070.00
2023-05-10T04:39:21.298Z,1070.00
2023-05-10T04:40:21.360Z,1074.00
2023-05-10T04:41:21.322Z,1077.00
2023-05-10T04:42:21.344Z,1078.00
2023-05-10T04:43:21.355Z,1086.00
2023-05-10T04:44:21.388Z,1074.00
2023-05-10T04:45:21.380Z,1075.00
2023-05-10T04:46:21.424Z,1074.00
2023-05-10T04:47:21.482Z,1077.00
2023-05-10T04:48:21.439Z,1066.00
2023-05-10T04:49:21.418Z,1094.00
2023-05-10T04:50:21.477Z,1083.00
2023-05-10T04:51:21.469Z,1078.00
2023-05-10T04:52:21.461Z,1084.00
2023-05-10T04:53:21.517Z,1068.00
2023-05-10T04:54:21.519Z,1072.00
2023-05-10T04:55:21.518Z,1066.00
2023-05-10T04:56:21.582Z,1069.00
2023-05-10T04:57:21.566Z,1085.00
2023-05-10T04:58:21.588Z,1082.00
2023-05-10T04:59:21.602Z,1084.00
2023-05-10T05:00:21.604Z,1091.00
2023-05-10T05:01:21.627Z,1088.00
2023-05-10T05:02:21.666Z,1086.00
2023-05-10T05:03:21.799Z,1075.00
2023-05-10T05:04:21.692Z,1084.00
2023-05-10T05:05:21.702Z,1086.00
2023-05-10T05:06:21.700Z,1077.00
2023-05-10T05:07:21.737Z,1072.00
2023-05-10T05:08:21.751Z,1075.00
2023-05-10T05:09:21.758Z,1070.00
2023-05-10T05:10:21.784Z,1076.00
2023-05-10T05:11:21.797Z,1066.00
2023-05-10T05:12:21.812Z,1072.00
2023-05-10T05:13:21.857Z,1082.00
2023-05-10T05:14:21.834Z,1075.00
2023-05-10T05:15:21.872Z,1079.00
2023-05-10T05:16:21.928Z,1085.00
2023-05-10T05:17:21.894Z,1065.00
2023-05-10T05:18:21.887Z,1075.00
2023-05-10T05:19:21.911Z,1076.00
2023-05-10T05:20:21.930Z,1083.00
2023-05-10T05:21:21.920Z,1061.00
2023-05-10T05:22:21.929Z,1084.00
2023-05-10T05:23:21.939Z,1081.00
2023-05-10T05:24:21.956Z,1075.00
2023-05-10T05:25:21.998Z,1071.00
2023-05-10T05:26:22.032Z,1077.00
2023-05-10T05:27:22.064Z,1076.00
2023-05-10T05:28:22.037Z,1078.00
2023-05-10T05:29:22.065Z,1075.00
2023-05-10T05:30:22.059Z,1086.00
2023-05-10T05:31:22.072Z,1077.00
2023-05-10T05:32:22.076Z,1074.00
2023-05-10T05:33:22.100Z,1081.00
2023-05-10T05:34:22.112Z,1082.00
2023-05-10T05:35:22.119Z,1075.00
2023-05-10T05:36:22.140Z,1089.00
2023-05-10T05:37:22.183Z,1096.00
2023-05-10T05:38:22.180Z,1145.00
2023-05-10T05:39:22.277Z,1143.00
2023-05-10T05:40:22.232Z,1178.00
2023-05-10T05:41:22.265Z,1205.00
2023-05-10T05:42:22.237Z,1202.00
2023-05-10T05:43:22.271Z,1229.00
2023-05-10T05:44:22.252Z,1245.00
2023-05-10T05:45:22.239Z,1264.00
2023-05-10T05:46:22.263Z,1279.00
2023-05-10T05:47:22.285Z,1269.00
2023-05-10T05:48:22.228Z,1283.00
2023-05-10T05:49:22.292Z,1273.00
2023-05-10T05:50:22.295Z,1284.00
2023-05-10T05:51:22.281Z,1279.00
2023-05-10T05:52:22.358Z,1290.00
2023-05-10T05:53:22.249Z,1278.00
2023-05-10T05:54:22.285Z,1291.00
2023-05-10T05:55:22.290Z,1282.00
2023-05-10T05:56:22.301Z,1292.00
2023-05-10T05:57:22.268Z,1310.00
2023-05-10T05:58:22.349Z,1288.00
2023-05-10T05:59:22.279Z,1300.00
2023-05-10T06:00:22.290Z,1289.00
2023-05-10T06:01:22.338Z,1278.00
2023-05-10T06:02:22.402Z,1286.00
2023-05-10T06:03:22.356Z,1295.00
2023-05-10T06:04:22.376Z,1280.00
2023-05-10T06:05:22.304Z,1274.00
2023-05-10T06:06:22.361Z,1291.00
2023-05-10T06:07:22.327Z,1284.00
2023-05-10T06:08:22.319Z,1295.00
2023-05-10T06:09:22.401Z,1291.00
2023-05-10T06:10:22.353Z,1282.00
2023-05-10T06:11:22.449Z,1275.00
2023-05-10T06:12:22.316Z,1296.00
2023-05-10T06:13:22.306Z,1294.00
2023-05-10T06:14:22.310Z,1304.00
2023-05-10T06:15:22.298Z,1301.00
2023-05-10T06:16:22.338Z,1300.00
2023-05-10T06:17:22.296Z,1292.00
2023-05-10T06:18:22.285Z,1292.00
2023-05-10T06:19:22.308Z,1307.00
2023-05-10T06:20:22.297Z,1312.00
2023-05-10T06:21:22.313Z,1317.00
2023-05-10T06:22:22.313Z,1326.00
2023-05-10T06:23:22.276Z,1330.00
2023-05-10T06:24:22.293Z,1326.00
2023-05-10T06:25:22.876Z,1337.00
2023-05-10T06:26:22.298Z,1342.00
2023-05-10T06:27:22.294Z,1352.00
2023-05-10T06:28:22.358Z,1353.00
2023-05-10T06:29:22.302Z,1364.00
2023-05-10T06:30:22.288Z,1382.00
2023-05-10T06:31:22.378Z,1385.00
2023-05-10T06:32:22.353Z,1363.00
2023-05-10T06:33:22.370Z,1375.00
2023-05-10T06:34:22.914Z,1402.00
2023-05-10T06:35:22.404Z,1396.00
2023-05-10T06:36:22.437Z,1405.00
2023-05-10T06:37:22.474Z,1399.00
2023-05-10T06:38:22.456Z,1369.00
2023-05-10T06:39:22.891Z,1362.00
2023-05-10T06:40:22.492Z,1358.00
2023-05-10T06:41:24.626Z,1317.00
2023-05-10T06:42:22.520Z,1280.00
2023-05-10T06:43:22.488Z,1229.00
2023-05-10T06:44:22.513Z,1221.00
2023-05-10T06:45:22.513Z,1264.00
2023-05-10T06:46:22.612Z,1288.00
2023-05-10T06:47:22.550Z,1310.00
2023-05-10T06:48:22.671Z,1315.00
2023-05-10T06:49:22.879Z,1308.00
2023-05-10T06:50:22.562Z,1313.00
2023-05-10T06:51:22.549Z,1303.00
2023-05-10T06:52:22.587Z,1317.00
2023-05-10T06:53:22.530Z,1333.00
2023-05-10T06:54:22.541Z,1348.00
2023-05-10T06:55:22.526Z,1347.00
2023-05-10T06:56:22.580Z,1365.00
2023-05-10T06:57:31.097Z,1371.00
2023-05-10T06:58:23.519Z,1373.00
2023-05-10T06:59:22.566Z,1376.00
2023-05-10T07:00:22.543Z,1387.00
2023-05-10T07:01:22.600Z,1382.00
2023-05-10T07:02:22.585Z,1411.00
2023-05-10T07:03:22.905Z,1420.00
2023-05-10T07:04:22.927Z,1402.00
2023-05-10T07:05:22.988Z,1426.00
2023-05-10T07:06:33.024Z,1425.00
2023-05-10T07:07:23.418Z,1426.00
2023-05-10T07:08:22.428Z,1428.00
2023-05-10T07:09:22.869Z,1431.00
2023-05-10T07:10:22.880Z,1428.00
2023-05-10T07:11:22.391Z,1435.00
2023-05-10T07:12:22.440Z,1426.00
2023-05-10T07:13:22.561Z,1448.00
2023-05-10T07:14:22.424Z,1441.00
2023-05-10T07:15:22.942Z,1444.00
2023-05-10T07:16:22.414Z,1448.00
2023-05-10T07:17:22.423Z,1434.00
2023-05-10T07:18:22.555Z,1432.00
2023-05-10T07:19:22.555Z,1416.00
2023-05-10T07:20:22.589Z,1434.00
2023-05-10T07:21:22.706Z,1442.00
2023-05-10T07:22:22.919Z,1447.00
2023-05-10T07:23:22.777Z,1440.00
2023-05-10T07:24:22.820Z,1445.00
2023-05-10T07:25:22.899Z,1445.00
2023-05-10T07:26:22.964Z,1464.00
2023-05-10T07:27:23.007Z,1445.00
2023-05-10T07:28:23.105Z,1442.00
2023-05-10T07:29:23.115Z,1462.00
2023-05-10T07:30:23.274Z,1457.00
2023-05-10T07:31:23.294Z,1466.00
2023-05-10T07:32:23.468Z,1471.00
2023-05-10T07:33:23.392Z,1470.00
2023-05-10T07:34:23.482Z,1491.00
2023-05-10T07:35:23.921Z,1500.00
2023-05-10T07:36:23.588Z,1531.00
2023-05-10T07:37:23.653Z,1554.00
2023-05-10T07:38:23.683Z,1554.00
2023-05-10T07:39:27.787Z,1576.00
2023-05-10T07:40:23.724Z,1577.00
2023-05-10T07:41:23.966Z,1578.00
2023-05-10T07:42:23.664Z,1579.00
2023-05-10T07:43:23.673Z,1586.00
2023-05-10T07:44:23.673Z,1607.00
2023-05-10T07:45:23.686Z,1608.00
2023-05-10T07:46:23.718Z,1611.00
2023-05-10T07:47:23.718Z,1608.00
2023-05-10T07:48:23.639Z,1583.00
2023-05-10T07:49:23.648Z,1612.00
2023-05-10T07:50:23.625Z,1606.00
2023-05-10T07:51:23.626Z,1609.00
2023-05-10T07:52:23.632Z,1617.00
2023-05-10T07:53:23.627Z,1625.00
2023-05-10T07:54:23.607Z,1630.00
2023-05-10T07:55:23.593Z,1628.00
2023-05-10T07:56:23.583Z,1631.00
2023-05-10T07:57:23.559Z,1631.00
2023-05-10T07:58:23.569Z,1632.00
2023-05-10T07:59:23.651Z,1611.00
2023-05-10T08:00:23.719Z,1628.00
2023-05-10T08:01:23.687Z,1622.00
2023-05-10T08:02:23.887Z,1633.00
2023-05-10T08:03:23.892Z,1631.00
2023-05-10T08:04:23.860Z,1644.00
2023-05-10T08:05:23.860Z,1632.00
2023-05-10T08:06:23.931Z,1620.00
2023-05-10T08:07:23.928Z,1633.00
2023-05-10T08:08:23.981Z,1620.00
2023-05-10T08:09:23.976Z,1627.00
2023-05-10T08:10:24.020Z,1634.00
2023-05-10T08:11:24.058Z,1627.00
2023-05-10T08:12:24.448Z,1626.00
2023-05-10T08:13:24.437Z,1622.00
2023-05-10T08:14:24.284Z,1552.00
2023-05-10T08:15:24.246Z,1443.00
2023-05-10T08:16:24.363Z,1370.00
2023-05-10T08:17:24.882Z,1331.00
2023-05-10T08:18:24.426Z,1312.00
2023-05-10T08:19:24.452Z,1290.00
2023-05-10T08:20:24.509Z,1264.00
2023-05-10T08:21:24.510Z,1234.00
2023-05-10T08:22:24.461Z,1209.00
2023-05-10T08:23:24.472Z,1158.00
2023-05-10T08:24:24.471Z,1169.00
2023-05-10T08:25:24.503Z,1182.00
2023-05-10T08:26:24.546Z,1099.00
2023-05-10T08:27:24.551Z,1051.00
2023-05-10T08:28:24.554Z,1078.00
2023-05-10T08:29:25.371Z,1138.00
2023-05-10T08:30:24.631Z,1132.00
2023-05-10T08:31:24.724Z,1134.00
2023-05-10T08:32:24.839Z,1084.00
2023-05-10T08:33:24.788Z,1083.00
2023-05-10T08:34:25.236Z,1061.00
2023-05-10T08:35:24.946Z,1037.00
2023-05-10T08:36:24.948Z,1000.00
2023-05-10T08:37:25.028Z,977.00
2023-05-10T08:38:25.063Z,993.00
2023-05-10T08:39:30.472Z,959.00
2023-05-10T08:40:26.142Z,945.00
2023-05-10T08:41:25.125Z,876.00
2023-05-10T08:42:25.097Z,878.00
2023-05-10T08:43:25.116Z,929.00
2023-05-10T08:44:25.100Z,1023.00
2023-05-10T08:45:25.177Z,1017.00
2023-05-10T08:46:25.213Z,1079.00
2023-05-10T08:47:25.114Z,1071.00
2023-05-10T08:48:25.055Z,1075.00
2023-05-10T08:49:25.130Z,1110.00
2023-05-10T08:50:25.477Z,1116.00
2023-05-10T08:51:25.226Z,1123.00
2023-05-10T08:52:25.290Z,1116.00
2023-05-10T08:53:25.346Z,1131.00
2023-05-10T08:54:25.387Z,1134.00
2023-05-10T08:55:25.459Z,1147.00
2023-05-10T08:56:25.509Z,1145.00
2023-05-10T08:57:25.983Z,1156.00
2023-05-10T08:58:25.945Z,1152.00
2023-05-10T08:59:25.618Z,1122.00
2023-05-10T09:00:25.632Z,1128.00
2023-05-10T09:01:25.848Z,1159.00
2023-05-10T09:02:25.690Z,1183.00
2023-05-10T09:03:25.725Z,1165.00
2023-05-10T09:04:25.859Z,1168.00
2023-05-10T09:05:25.826Z,1163.00
2023-05-10T09:06:25.781Z,1181.00
2023-05-10T09:07:25.808Z,1141.00
2023-05-10T09:08:25.785Z,1155.00
2023-05-10T09:09:25.821Z,1144.00
2023-05-10T09:10:25.824Z,1190.00
2023-05-10T09:11:25.876Z,1159.00
2023-05-10T09:12:25.868Z,1165.00
2023-05-10T09:13:25.905Z,1172.00
2023-05-10T09:14:25.939Z,1172.00
2023-05-10T09:15:25.920Z,1159.00
2023-05-10T09:16:25.997Z,1185.00
2023-05-10T09:17:26.125Z,1186.00
2023-05-10T09:18:27.836Z,1211.00
2023-05-10T09:19:25.957Z,1227.00
2023-05-10T09:20:25.973Z,1227.00
2023-05-10T09:21:26.438Z,1244.00
2023-05-10T09:22:26.029Z,1211.00
2023-05-10T09:23:25.977Z,1211.00
2023-05-10T09:24:26.007Z,1202.00
2023-05-10T09:25:26.001Z,1225.00
2023-05-10T09:26:26.449Z,1235.00
2023-05-10T09:27:26.011Z,1220.00
2023-05-10T09:28:26.429Z,1181.00
2023-05-10T09:29:26.032Z,1174.00
2023-05-10T09:30:26.048Z,1170.00
2023-05-10T09:31:26.255Z,1160.00
2023-05-10T09:32:26.089Z,1170.00
2023-05-10T09:33:26.059Z,1184.00
2023-05-10T09:34:26.070Z,1168.00
2023-05-10T09:35:29.327Z,1154.00
2023-05-10T09:36:26.063Z,1163.00
2023-05-10T09:37:26.057Z,1183.00
2023-05-10T09:38:26.509Z,1203.00
2023-05-10T09:39:26.023Z,1226.00
2023-05-10T09:40:26.047Z,1255.00
2023-05-10T09:41:26.051Z,1255.00
2023-05-10T09:42:26.126Z,1288.00
2023-05-10T09:43:26.032Z,1289.00
2023-05-10T09:44:25.991Z,1287.00
2023-05-10T09:45:26.028Z,1303.00
2023-05-10T09:46:26.061Z,1318.00
2023-05-10T09:47:26.023Z,1322.00
2023-05-10T09:48:25.983Z,1341.00
2023-05-10T09:49:26.054Z,1349.00
2023-05-10T09:50:25.969Z,1356.00
2023-05-10T09:51:25.966Z,1358.00
2023-05-10T09:52:25.940Z,1370.00
2023-05-10T09:53:25.928Z,1352.00
2023-05-10T09:54:25.911Z,1352.00
2023-05-10T09:55:25.951Z,1374.00
2023-05-10T09:56:25.922Z,1376.00
2023-05-10T09:57:25.992Z,1383.00
2023-05-10T09:58:25.921Z,1397.00
2023-05-10T09:59:25.946Z,1382.00
2023-05-10T10:00:25.880Z,1367.00
2023-05-10T10:01:25.872Z,1389.00
2023-05-10T10:02:26.192Z,1385.00
2023-05-10T10:03:26.287Z,1382.00
2023-05-10T10:04:25.896Z,1401.00
2023-05-10T10:05:25.822Z,1404.00
2023-05-10T10:06:30.195Z,1405.00
2023-05-10T10:07:25.846Z,1406.00
2023-05-10T10:08:25.825Z,1405.00
2023-05-10T10:09:25.826Z,1408.00
2023-05-10T10:10:25.789Z,1393.00
2023-05-10T10:11:25.824Z,1400.00
2023-05-10T10:12:25.806Z,1380.00
2023-05-10T10:13:25.833Z,1391.00
2023-05-10T10:14:25.823Z,1396.00
2023-05-10T10:15:25.998Z,1418.00
2023-05-10T10:16:25.873Z,1416.00
2023-05-10T10:17:26.014Z,1427.00
2023-05-10T10:18:26.087Z,1430.00
2023-05-10T10:19:25.968Z,1422.00
2023-05-10T10:20:25.882Z,1433.00
2023-05-10T10:21:25.885Z,1428.00
2023-05-10T10:22:26.001Z,1448.00
2023-05-10T10:23:25.967Z,1444.00
2023-05-10T10:24:25.987Z,1449.00
2023-05-10T10:25:26.059Z,1392.00
2023-05-10T10:26:26.514Z,1440.00
2023-05-10T10:27:26.132Z,1408.00
2023-05-10T10:28:28.125Z,1416.00
2023-05-10T10:29:26.287Z,1409.00
2023-05-10T10:30:26.291Z,1419.00
2023-05-10T10:31:26.353Z,1455.00
2023-05-10T10:32:26.406Z,1474.00
2023-05-10T10:33:28.696Z,1506.00
2023-05-10T10:34:26.546Z,1525.00
2023-05-10T10:35:27.011Z,1528.00
2023-05-10T10:36:26.656Z,1534.00
2023-05-10T10:37:26.627Z,1521.00
2023-05-10T10:38:26.685Z,1532.00
2023-05-10T10:39:26.684Z,1534.00
2023-05-10T10:40:26.744Z,1550.00
2023-05-10T10:41:26.753Z,1562.00
2023-05-10T10:42:26.795Z,1572.00
2023-05-10T10:43:26.952Z,1565.00
2023-05-10T10:44:27.184Z,1591.00
2023-05-10T10:45:26.850Z,1585.00
2023-05-10T10:46:26.973Z,1612.00
2023-05-10T10:47:26.929Z,1613.00
2023-05-10T10:48:26.947Z,1617.00
2023-05-10T10:49:26.904Z,1612.00
2023-05-10T10:50:26.938Z,1605.00
2023-05-10T10:51:26.951Z,1585.00
2023-05-10T10:52:27.002Z,1581.00
2023-05-10T10:53:27.115Z,1594.00
2023-05-10T10:54:27.025Z,1569.00
2023-05-10T10:55:27.028Z,1567.00
2023-05-10T10:56:27.083Z,1602.00
2023-05-10T10:57:27.058Z,1591.00
2023-05-10T10:58:27.101Z,1562.00
2023-05-10T10:59:27.109Z,1551.00
2023-05-10T11:00:27.121Z,1566.00
2023-05-10T11:01:27.143Z,1566.00
2023-05-10T11:02:27.081Z,1590.00
2023-05-10T11:03:27.138Z,1606.00
2023-05-10T11:04:27.163Z,1604.00
2023-05-10T11:05:27.493Z,1584.00
2023-05-10T11:06:27.149Z,1588.00
2023-05-10T11:07:27.166Z,1556.00
2023-05-10T11:08:27.117Z,1523.00
2023-05-10T11:09:27.106Z,1549.00
2023-05-10T11:10:27.171Z,1571.00
2023-05-10T11:11:27.492Z,1555.00
2023-05-10T11:12:27.162Z,1461.00
2023-05-10T11:13:27.191Z,1460.00
2023-05-10T11:14:27.198Z,1450.00
2023-05-10T11:15:27.568Z,1514.00
2023-05-10T11:16:27.557Z,1500.00
2023-05-10T11:17:27.499Z,1532.00
2023-05-10T11:18:27.331Z,1562.00
2023-05-10T11:19:27.301Z,1542.00
2023-05-10T11:20:27.306Z,1525.00
2023-05-10T11:21:27.387Z,1503.00
2023-05-10T11:22:27.351Z,1495.00
2023-05-10T11:23:27.364Z,1460.00
2023-05-10T11:24:27.372Z,1457.00
2023-05-10T11:25:27.396Z,1426.00
2023-05-10T11:26:27.400Z,1419.00
2023-05-10T11:27:27.454Z,1395.00
2023-05-10T11:28:27.450Z,1361.00
2023-05-10T11:29:27.482Z,1335.00
2023-05-10T11:30:27.476Z,1284.00
2023-05-10T11:31:27.801Z,1266.00
2023-05-10T11:32:27.581Z,1283.00
2023-05-10T11:33:27.593Z,1248.00
2023-05-10T11:34:27.590Z,1252.00
2023-05-10T11:35:27.622Z,1193.00
2023-05-10T11:36:27.635Z,1209.00
2023-05-10T11:37:27.673Z,1209.00
2023-05-10T11:38:27.711Z,1174.00
2023-05-10T11:39:28.474Z,1162.00
2023-05-10T11:40:27.738Z,1155.00
2023-05-10T11:41:27.780Z,1173.00
2023-05-10T11:42:27.819Z,1156.00
2023-05-10T11:43:27.814Z,1129.00
2023-05-10T11:44:27.863Z,1134.00
2023-05-10T11:45:27.913Z,1101.00
2023-05-10T11:46:28.092Z,1069.00
2023-05-10T11:47:27.990Z,1025.00
2023-05-10T11:48:27.997Z,1049.00
2023-05-10T11:49:28.005Z,1041.00
2023-05-10T11:50:28.030Z,995.00
2023-05-10T11:51:28.069Z,981.00
2023-05-10T11:52:28.129Z,929.00
2023-05-10T11:53:28.159Z,904.00
2023-05-10T11:54:28.193Z,862.00
2023-05-10T11:55:28.214Z,881.00
2023-05-10T11:56:28.257Z,877.00
2023-05-10T11:57:28.280Z,952.00
2023-05-10T11:58:28.318Z,982.00
2023-05-10T11:59:28.337Z,970.00
2023-05-10T12:00:28.344Z,966.00
2023-05-10T12:01:28.443Z,987.00
2023-05-10T12:02:28.507Z,1065.00
2023-05-10T12:03:28.571Z,1072.00
2023-05-10T12:04:28.532Z,1064.00
2023-05-10T12:05:28.508Z,1032.00
2023-05-10T12:06:28.584Z,1040.00